Time;durP1;ratioP1;P1;durP2;ratioP2;P2;SDS_P1;SDS_P2;PMS_P1;PMS_P2;Temp;Humidity;BMP_temperature;BMP_pressure;BME280_temperature;BME280_humidity;BME280_pressure;Samples;Min_cycle;Max_cycle;Signal;HPM_P1;HPM_P2
2023/08/19 00:00:53;;;;;;;14.52;6.80;;;27.20;99.90;;;;;;4055330;29;20096;-60
2023/08/19 00:02:55;;;;;;;11.38;6.38;;;27.20;99.90;;;;;;4054302;29;20483;-61
2023/08/19 00:04:59;;;;;;;7.03;5.60;;;27.20;99.90;;;;;;4054684;29;20107;-61
2023/08/19 00:07:01;;;;;;;9.00;5.97;;;27.20;99.90;;;;;;4054680;29;20048;-61
2023/08/19 00:09:05;;;;;;;11.43;5.97;;;27.20;99.90;;;;;;4054727;29;20063;-60
2023/08/19 00:11:07;;;;;;;11.75;6.30;;;27.20;99.90;;;;;;4054740;29;20041;-61
2023/08/19 00:13:09;;;;;;;12.65;6.50;;;27.20;99.90;;;;;;4053794;29;20056;-60
2023/08/19 00:15:11;;;;;;;10.13;6.03;;;27.20;99.90;;;;;;4055108;29;20083;-60
2023/08/19 00:17:13;;;;;;;9.30;6.63;;;27.20;99.90;;;;;;4054680;29;20141;-61
2023/08/19 00:19:15;;;;;;;10.40;6.35;;;27.20;99.90;;;;;;4054383;29;20049;-62
2023/08/19 00:21:19;;;;;;;9.07;6.00;;;27.20;99.90;;;;;;4054716;29;20052;-61
2023/08/19 00:23:23;;;;;;;15.45;7.30;;;27.10;99.90;;;;;;4053941;29;20052;-60
2023/08/19 00:25:26;;;;;;;9.00;6.20;;;27.10;99.90;;;;;;4054513;29;20052;-60
2023/08/19 00:27:28;;;;;;;10.30;5.80;;;27.10;99.90;;;;;;4054375;29;20056;-59
2023/08/19 00:29:30;;;;;;;8.75;5.72;;;27.10;99.90;;;;;;4053374;29;20127;-60
2023/08/19 00:31:33;;;;;;;9.88;6.50;;;27.10;99.90;;;;;;4054491;29;20079;-61
2023/08/19 00:33:35;;;;;;;9.18;5.88;;;27.10;99.90;;;;;;4053704;29;20067;-59
2023/08/19 00:35:39;;;;;;;8.15;5.80;;;27.10;99.90;;;;;;4054299;29;20484;-60
2023/08/19 00:37:42;;;;;;;12.20;6.50;;;27.10;99.90;;;;;;4054389;29;20053;-60
2023/08/19 00:39:44;;;;;;;13.18;6.00;;;27.10;99.90;;;;;;4052943;29;20087;-60
2023/08/19 00:41:48;;;;;;;11.82;6.47;;;27.10;99.90;;;;;;4054108;29;20100;-60
2023/08/19 00:43:50;;;;;;;10.73;6.50;;;27.10;99.90;;;;;;4053660;29;20040;-60
2023/08/19 00:45:52;;;;;;;12.45;6.68;;;27.00;99.90;;;;;;4054212;29;20049;-60
2023/08/19 00:47:54;;;;;;;9.15;6.10;;;27.00;99.90;;;;;;4054585;29;20436;-60
2023/08/19 00:49:57;;;;;;;8.93;6.00;;;27.00;99.90;;;;;;4054031;29;20131;-60
2023/08/19 00:52:00;;;;;;;11.57;6.53;;;27.00;99.90;;;;;;4054324;29;20075;-60
2023/08/19 00:54:04;;;;;;;11.05;6.28;;;27.10;99.90;;;;;;4053550;29;20048;-60
2023/08/19 00:56:06;;;;;;;8.63;5.85;;;27.00;99.90;;;;;;4038478;29;20072;-60
2023/08/19 00:58:09;;;;;;;11.40;5.65;;;27.00;99.90;;;;;;4038539;29;20057;-60
2023/08/19 01:00:12;;;;;;;11.15;6.30;;;27.00;99.90;;;;;;4050834;29;20052;-60
2023/08/19 01:02:14;;;;;;;12.82;6.55;;;27.00;99.90;;;;;;4054062;29;20071;-60
2023/08/19 01:04:16;;;;;;;10.93;6.80;;;27.00;99.90;;;;;;4053011;29;20190;-60
2023/08/19 01:06:26;;;;;;;11.35;6.60;;;27.00;99.90;;;;;;4054094;29;20121;-60
2023/08/19 01:08:33;;;;;;;9.35;5.93;;;27.00;99.90;;;;;;4054116;29;20135;-60
2023/08/19 01:10:44;;;;;;;9.50;6.28;;;27.00;99.90;;;;;;4052382;29;20431;-60
2023/08/19 01:13:03;;;;;;;9.52;6.32;;;27.00;99.90;;;;;;4053774;29;20060;-60
2023/08/19 01:15:09;;;;;;;10.35;6.25;;;27.00;99.90;;;;;;4052789;29;20059;-61
2023/08/19 01:17:22;;;;;;;8.55;6.18;;;27.00;99.90;;;;;;4052603;29;20052;-60
2023/08/19 01:19:30;;;;;;;11.85;6.75;;;27.00;99.90;;;;;;4052524;29;20055;-60
2023/08/19 01:21:33;;;;;;;8.50;5.72;;;27.00;99.90;;;;;;4053750;29;20131;-61
2023/08/19 01:23:40;;;;;;;8.13;5.75;;;26.90;99.90;;;;;;4053222;29;20499;-60
2023/08/19 01:25:44;;;;;;;13.70;5.88;;;26.90;99.90;;;;;;4053068;29;20048;-60
2023/08/19 01:27:51;;;;;;;11.75;5.60;;;26.90;99.90;;;;;;4053765;29;20139;-60
2023/08/19 01:29:58;;;;;;;6.85;5.50;;;27.00;99.90;;;;;;4052224;29;20064;-60
2023/08/19 01:32:06;;;;;;;9.57;5.85;;;26.90;99.90;;;;;;4053653;29;20059;-61
2023/08/19 01:34:08;;;;;;;8.05;5.47;;;26.90;99.90;;;;;;4052920;29;20135;-58
2023/08/19 01:36:18;;;;;;;9.52;5.53;;;27.00;99.90;;;;;;4053572;29;20088;-57
2023/08/19 01:38:26;;;;;;;8.85;5.18;;;26.90;99.90;;;;;;4053442;29;20045;-57
2023/08/19 01:40:29;;;;;;;11.77;4.50;;;26.90;99.90;;;;;;4052874;29;20051;-57
2023/08/19 01:42:34;;;;;;;12.82;5.25;;;26.90;99.90;;;;;;4053350;29;20485;-57
2023/08/19 01:44:37;;;;;;;;;;;26.90;99.90;;;;;;4053208;29;20057;-58
2023/08/19 01:46:39;;;;;;;9.77;4.70;;;26.90;99.90;;;;;;4053205;29;19923;-58
2023/08/19 01:48:41;;;;;;;8.85;4.63;;;26.80;99.90;;;;;;4051952;29;20159;-58
2023/08/19 01:50:43;;;;;;;8.60;4.93;;;26.90;99.90;;;;;;4052850;29;20582;-58
2023/08/19 01:52:45;;;;;;;9.25;5.03;;;26.90;99.90;;;;;;4053194;29;20148;-58
2023/08/19 01:54:48;;;;;;;7.03;4.47;;;26.90;99.90;;;;;;4052418;29;20052;-58
2023/08/19 01:56:50;;;;;;;8.63;4.57;;;26.90;99.90;;;;;;4052846;29;20036;-58
2023/08/19 01:58:54;;;;;;;8.75;4.45;;;26.90;99.90;;;;;;4053133;29;20443;-58
2023/08/19 02:00:56;;;;;;;7.82;4.25;;;26.90;99.90;;;;;;4053222;29;20466;-59
2023/08/19 02:02:59;;;;;;;7.00;4.60;;;26.90;99.90;;;;;;4053072;29;20455;-61
2023/08/19 02:05:02;;;;;;;7.93;4.90;;;26.90;99.90;;;;;;4052726;29;20112;-61
2023/08/19 02:07:04;;;;;;;11.80;5.07;;;26.90;99.90;;;;;;4053124;29;20087;-58
2023/08/19 02:09:06;;;;;;;8.73;5.10;;;26.90;99.90;;;;;;4052763;29;20551;-59
2023/08/19 02:11:08;;;;;;;5.75;4.43;;;26.90;99.90;;;;;;4052815;29;20053;-58
2023/08/19 02:13:10;;;;;;;8.57;4.43;;;26.80;99.80;;;;;;4052958;29;20444;-59
2023/08/19 02:15:14;;;;;;;7.43;4.30;;;26.80;99.80;;;;;;4061547;29;20056;-58
2023/08/19 02:17:16;;;;;;;7.50;5.18;;;26.80;99.80;;;;;;4060070;29;20056;-58
2023/08/19 02:19:18;;;;;;;9.48;5.03;;;26.80;99.70;;;;;;4052795;29;20059;-58
2023/08/19 02:21:20;;;;;;;10.20;5.00;;;26.80;99.70;;;;;;4052804;29;20052;-58
2023/08/19 02:23:22;;;;;;;8.82;4.55;;;26.80;99.70;;;;;;4051877;29;20058;-59
2023/08/19 02:25:24;;;;;;;10.77;4.80;;;26.70;99.70;;;;;;4052738;29;20063;-58
2023/08/19 02:27:26;;;;;;;9.73;4.43;;;26.70;99.60;;;;;;4052709;29;20060;-58
2023/08/19 02:29:28;;;;;;;6.07;4.30;;;26.70;99.70;;;;;;4051527;29;20416;-58
2023/08/19 02:31:31;;;;;;;8.50;4.65;;;26.70;99.70;;;;;;4052706;29;20044;-58
2023/08/19 02:33:35;;;;;;;7.32;4.80;;;26.70;99.70;;;;;;4051870;29;20460;-58
2023/08/19 02:35:37;;;;;;;13.35;4.63;;;26.70;99.70;;;;;;4052455;29;20059;-59
2023/08/19 02:37:39;;;;;;;7.55;4.35;;;26.60;99.70;;;;;;4052033;29;20096;-59
2023/08/19 02:39:41;;;;;;;8.23;4.57;;;26.60;99.80;;;;;;4052586;29;20051;-59
2023/08/19 02:41:43;;;;;;;6.97;4.53;;;26.60;99.70;;;;;;4052702;29;20060;-58
2023/08/19 02:43:46;;;;;;;7.32;4.47;;;26.60;99.60;;;;;;4051628;29;20048;-58
2023/08/19 02:45:48;;;;;;;8.23;4.57;;;26.60;99.60;;;;;;4052617;29;20076;-58
2023/08/19 02:47:51;;;;;;;7.03;4.43;;;26.50;99.70;;;;;;4052577;29;20419;-59
2023/08/19 02:49:54;;;;;;;8.35;4.18;;;26.50;99.60;;;;;;4037311;29;20076;-59
2023/08/19 02:51:56;;;;;;;10.45;4.85;;;26.50;99.70;;;;;;4036680;29;20139;-59
2023/08/19 02:53:58;;;;;;;7.82;4.60;;;26.50;99.60;;;;;;4048512;29;20460;-60
2023/08/19 02:56:00;;;;;;;5.85;4.72;;;26.50;99.60;;;;;;4052320;29;20052;-59
2023/08/19 02:58:03;;;;;;;9.02;4.78;;;26.50;99.60;;;;;;4052275;29;20048;-58
2023/08/19 03:00:07;;;;;;;7.22;4.80;;;26.50;99.50;;;;;;4052323;29;20052;-58
2023/08/19 03:02:09;;;;;;;7.32;4.57;;;26.50;99.50;;;;;;4051921;29;20069;-58
2023/08/19 03:04:12;;;;;;;7.85;4.15;;;26.50;99.60;;;;;;4051306;29;20087;-58
2023/08/19 03:06:14;;;;;;;6.07;4.20;;;26.50;99.50;;;;;;4052119;29;20427;-58
2023/08/19 03:08:16;;;;;;;7.55;5.03;;;26.50;99.60;;;;;;4051999;29;20052;-58
2023/08/19 03:10:18;;;;;;;5.95;4.75;;;26.40;99.60;;;;;;4052096;29;20053;-61
2023/08/19 03:12:20;;;;;;;7.82;5.50;;;26.40;99.60;;;;;;4052259;29;20061;-58
2023/08/19 03:14:22;;;;;;;10.18;5.43;;;26.40;99.70;;;;;;4053977;29;20491;-58
2023/08/19 03:16:25;;;;;;;7.63;5.18;;;26.40;99.70;;;;;;4057859;29;20060;-58
2023/08/19 03:18:27;;;;;;;8.02;4.63;;;26.30;99.50;;;;;;4052081;29;20525;-59
2023/08/19 03:20:30;;;;;;;12.30;4.93;;;26.30;99.50;;;;;;4052092;29;20076;-58
2023/08/19 03:22:33;;;;;;;8.35;4.72;;;26.30;99.50;;;;;;4052517;29;20063;-59
2023/08/19 03:24:34;;;;;;;7.72;4.65;;;26.30;99.60;;;;;;4051447;29;20135;-58
2023/08/19 03:26:36;;;;;;;8.45;4.65;;;26.30;99.40;;;;;;4052368;29;20049;-61
2023/08/19 03:28:38;;;;;;;8.52;4.90;;;26.20;99.30;;;;;;4052070;29;20135;-60
2023/08/19 03:30:41;;;;;;;6.00;4.85;;;26.20;99.10;;;;;;4049831;29;20057;-61
2023/08/19 03:32:43;;;;;;;7.10;4.72;;;26.20;99.20;;;;;;4052223;29;20422;-61
2023/08/19 03:34:45;;;;;;;10.23;4.90;;;26.20;99.30;;;;;;4051297;29;20100;-61
2023/08/19 03:36:48;;;;;;;10.52;4.72;;;26.20;99.20;;;;;;4052312;29;20044;-61
2023/08/19 03:38:50;;;;;;;7.90;4.30;;;26.10;99.10;;;;;;4052192;29;20056;-61
2023/08/19 03:40:53;;;;;;;8.93;4.13;;;26.20;99.10;;;;;;4052020;29;20144;-60
2023/08/19 03:42:55;;;;;;;10.60;5.05;;;26.20;99.20;;;;;;4052392;29;20100;-59
2023/08/19 03:44:57;;;;;;;6.43;4.38;;;26.10;99.20;;;;;;4050140;29;20079;-61
2023/08/19 03:46:59;;;;;;;8.05;4.05;;;26.10;99.00;;;;;;4052109;29;20490;-61
2023/08/19 03:49:01;;;;;;;8.27;4.20;;;26.10;99.30;;;;;;4051923;29;20475;-61
2023/08/19 03:51:03;;;;;;;6.13;4.63;;;26.10;99.00;;;;;;4052127;29;20419;-59
2023/08/19 03:53:07;;;;;;;6.72;4.22;;;26.10;99.00;;;;;;4052224;29;20475;-61
2023/08/19 03:55:09;;;;;;;7.05;4.25;;;26.00;98.90;;;;;;4051123;29;20435;-61
2023/08/19 03:57:11;;;;;;;11.32;4.30;;;26.00;98.90;;;;;;4051978;29;20052;-58
2023/08/19 03:59:13;;;;;;;8.43;4.20;;;25.90;98.80;;;;;;4052044;29;20208;-58
2023/08/19 04:01:15;;;;;;;8.88;4.40;;;25.90;98.80;;;;;;4051807;29;20161;-58
2023/08/19 04:03:18;;;;;;;5.82;4.18;;;25.90;98.70;;;;;;4052079;29;20487;-58
2023/08/19 04:05:20;;;;;;;5.25;4.00;;;25.90;98.60;;;;;;4051006;29;20546;-58
2023/08/19 04:07:22;;;;;;;5.97;3.92;;;25.80;98.70;;;;;;4051931;29;20048;-58
2023/08/19 04:09:26;;;;;;;6.45;4.03;;;25.90;98.50;;;;;;4051947;29;20427;-59
2023/08/19 04:11:28;;;;;;;7.93;4.28;;;25.80;98.60;;;;;;4051594;29;20140;-59
2023/08/19 04:13:30;;;;;;;8.73;4.00;;;25.80;98.60;;;;;;4053421;29;20494;-58
2023/08/19 04:15:33;;;;;;;10.18;4.35;;;25.80;98.60;;;;;;4061543;29;20044;-58
2023/08/19 04:17:35;;;;;;;7.65;4.07;;;25.80;98.60;;;;;;4055020;29;20044;-59
2023/08/19 04:19:38;;;;;;;5.28;3.40;;;25.80;98.50;;;;;;4054686;29;20052;-58
2023/08/19 04:21:40;;;;;;;8.93;3.97;;;25.70;98.20;;;;;;4054467;29;20190;-59
2023/08/19 04:23:44;;;;;;;6.72;3.83;;;25.70;97.90;;;;;;4054362;29;20542;-59
2023/08/19 04:25:48;;;;;;;5.03;3.20;;;25.60;97.60;;;;;;4054525;29;20049;-60
2023/08/19 04:27:50;;;;;;;5.25;3.30;;;25.60;97.70;;;;;;4054610;29;20480;-60
2023/08/19 04:29:52;;;;;;;5.28;3.58;;;25.60;97.70;;;;;;4054595;29;20067;-60
2023/08/19 04:31:54;;;;;;;5.30;3.15;;;25.60;97.60;;;;;;4054236;29;20040;-58
2023/08/19 04:33:56;;;;;;;8.38;3.28;;;25.50;97.50;;;;;;4053767;29;20052;-58
2023/08/19 04:35:59;;;;;;;7.97;3.40;;;25.50;97.60;;;;;;4054293;29;20055;-58
2023/08/19 04:38:01;;;;;;;8.20;3.58;;;25.50;97.50;;;;;;4054290;29;20048;-58
2023/08/19 04:40:06;;;;;;;4.88;3.30;;;25.50;97.40;;;;;;4054769;29;20063;-58
2023/08/19 04:42:10;;;;;;;7.13;3.25;;;25.50;97.40;;;;;;4054403;29;20044;-58
2023/08/19 04:44:12;;;;;;;7.85;3.42;;;25.50;97.40;;;;;;4053755;29;20059;-58
2023/08/19 04:46:14;;;;;;;4.55;3.08;;;25.40;97.60;;;;;;4054130;29;20613;-58
2023/08/19 04:48:16;;;;;;;7.85;3.05;;;25.40;97.60;;;;;;4053854;29;20044;-58
2023/08/19 04:50:21;;;;;;;8.35;3.25;;;25.40;97.60;;;;;;4054454;29;20410;-57
2023/08/19 04:52:23;;;;;;;9.15;3.22;;;25.50;97.70;;;;;;4054183;29;20048;-58
2023/08/19 04:54:25;;;;;;;5.68;3.30;;;25.40;97.70;;;;;;4053557;29;20431;-58
2023/08/19 04:56:27;;;;;;;5.90;3.50;;;25.40;97.80;;;;;;4054226;29;20060;-57
2023/08/19 04:58:30;;;;;;;4.68;3.40;;;25.40;97.80;;;;;;4053757;29;20057;-58
2023/08/19 05:00:33;;;;;;;4.78;3.25;;;25.40;97.90;;;;;;4054568;29;20059;-58
2023/08/19 05:02:35;;;;;;;5.97;3.60;;;25.40;98.00;;;;;;4053937;29;20047;-58
2023/08/19 05:04:37;;;;;;;5.47;3.60;;;25.40;98.10;;;;;;4053583;29;20063;-61
2023/08/19 05:06:39;;;;;;;8.48;3.25;;;25.40;98.00;;;;;;4054254;29;20044;-60
2023/08/19 05:08:41;;;;;;;6.65;3.30;;;25.40;98.00;;;;;;4053857;29;20048;-58
2023/08/19 05:10:43;;;;;;;5.78;3.10;;;25.40;98.00;;;;;;4052928;29;20053;-59
2023/08/19 05:12:45;;;;;;;10.60;4.20;;;25.30;98.00;;;;;;4053725;29;20055;-58
2023/08/19 05:14:49;;;;;;;4.32;2.83;;;25.30;97.80;;;;;;4053817;29;20040;-61
2023/08/19 05:16:51;;;;;;;3.88;3.05;;;25.30;98.10;;;;;;4053775;29;20045;-59
2023/08/19 05:19:05;;;;;;;8.10;3.33;;;25.20;97.70;;;;;;4053463;29;20060;-58
2023/08/19 05:21:07;;;;;;;6.55;3.05;;;25.30;97.70;;;;;;4054268;29;20045;-59
2023/08/19 05:23:09;;;;;;;4.80;2.78;;;25.20;97.60;;;;;;4054938;29;20535;-59
2023/08/19 05:25:11;;;;;;;6.78;2.72;;;25.20;97.50;;;;;;4053574;29;20411;-59
2023/08/19 05:27:13;;;;;;;8.85;2.45;;;25.20;97.70;;;;;;4054875;29;20053;-58
2023/08/19 05:29:16;;;;;;;7.00;2.70;;;25.20;97.50;;;;;;4053845;29;20076;-58
2023/08/19 05:31:19;;;;;;;5.82;2.45;;;25.20;97.50;;;;;;4053533;29;20040;-59
2023/08/19 05:33:22;;;;;;;5.55;2.38;;;25.20;97.60;;;;;;4053918;29;20052;-58
2023/08/19 05:35:24;;;;;;;3.65;2.15;;;25.30;97.50;;;;;;4053376;29;20083;-61
2023/08/19 05:37:26;;;;;;;3.65;2.05;;;25.20;97.60;;;;;;4054564;29;20119;-60
2023/08/19 05:39:28;;;;;;;5.55;2.10;;;25.20;97.60;;;;;;4054647;29;20067;-59
2023/08/19 05:41:30;;;;;;;5.82;2.60;;;25.30;97.40;;;;;;4054522;29;20055;-59
2023/08/19 05:43:32;;;;;;;5.70;2.33;;;25.20;97.30;;;;;;4053610;29;20052;-61
2023/08/19 05:45:34;;;;;;;4.15;2.20;;;25.30;97.50;;;;;;4052372;29;20052;-61
2023/08/19 05:47:37;;;;;;;5.10;2.25;;;25.20;97.40;;;;;;4053654;29;20076;-61
2023/08/19 05:49:39;;;;;;;2.67;2.00;;;25.20;97.40;;;;;;4053477;29;20048;-61
2023/08/19 05:51:42;;;;;;;3.50;2.05;;;25.30;97.60;;;;;;4053571;29;20052;-59
2023/08/19 05:53:44;;;;;;;4.35;2.28;;;25.20;97.60;;;;;;4053328;29;20112;-59
2023/08/19 05:55:47;;;;;;;4.13;2.45;;;25.20;97.50;;;;;;4052589;29;20045;-59
2023/08/19 05:57:49;;;;;;;4.13;1.95;;;25.20;97.70;;;;;;4053549;29;20048;-61
2023/08/19 05:59:51;;;;;;;7.47;2.15;;;25.20;97.70;;;;;;4052914;29;20410;-61
2023/08/19 06:01:53;;;;;;;3.20;2.10;;;25.20;97.80;;;;;;4053345;29;20048;-61
2023/08/19 06:03:57;;;;;;;7.25;2.15;;;25.20;97.60;;;;;;4053080;29;20096;-61
2023/08/19 06:06:03;;;;;;;5.88;2.20;;;25.20;97.50;;;;;;4052805;29;20052;-61
2023/08/19 06:08:05;;;;;;;3.78;2.10;;;25.20;97.60;;;;;;4053414;29;20044;-61
2023/08/19 06:10:08;;;;;;;2.33;1.90;;;25.10;97.50;;;;;;4053139;29;20403;-61
2023/08/19 06:12:10;;;;;;;6.18;2.33;;;25.10;97.70;;;;;;4053096;29;20537;-59
2023/08/19 06:14:12;;;;;;;4.03;2.63;;;25.20;97.80;;;;;;4052916;29;20408;-59
2023/08/19 06:16:14;;;;;;;2.53;2.15;;;25.20;97.90;;;;;;4053027;29;20101;-61
2023/08/19 06:18:16;;;;;;;4.05;1.80;;;25.20;98.10;;;;;;4053296;29;20053;-59
2023/08/19 06:20:20;;;;;;;3.17;2.08;;;25.10;97.90;;;;;;4052918;29;20076;-61
2023/08/19 06:22:22;;;;;;;3.95;2.55;;;25.10;97.90;;;;;;4053093;29;20048;-60
2023/08/19 06:24:24;;;;;;;3.35;1.90;;;25.20;98.20;;;;;;4052542;29;20083;-61
2023/08/19 06:26:26;;;;;;;3.63;2.08;;;25.20;97.80;;;;;;4052701;29;20406;-59
2023/08/19 06:28:28;;;;;;;2.95;1.90;;;25.20;97.80;;;;;;4053055;29;20049;-58
2023/08/19 06:30:31;;;;;;;4.20;2.08;;;25.20;97.90;;;;;;4052954;29;20483;-59
2023/08/19 06:32:33;;;;;;;7.50;2.30;;;25.20;98.00;;;;;;4052989;29;20068;-58
2023/08/19 06:34:36;;;;;;;5.85;2.00;;;25.20;97.80;;;;;;4052383;29;20471;-58
2023/08/19 06:36:42;;;;;;;4.70;2.10;;;25.20;97.80;;;;;;4052413;29;20144;-60
2023/08/19 06:38:52;;;;;;;4.50;2.13;;;25.10;97.80;;;;;;4052529;29;20062;-60
2023/08/19 06:41:00;;;;;;;3.28;1.90;;;25.20;97.90;;;;;;4051504;29;20128;-60
2023/08/19 06:43:06;;;;;;;5.22;2.33;;;25.10;97.70;;;;;;4052500;29;20490;-60
2023/08/19 06:45:10;;;;;;;4.45;2.10;;;25.10;97.80;;;;;;4052214;29;20044;-61
2023/08/19 06:47:13;;;;;;;4.70;1.90;;;25.10;97.80;;;;;;4052722;29;20049;-62
2023/08/19 06:49:15;;;;;;;4.78;2.28;;;25.10;97.80;;;;;;4052645;29;20048;-61
2023/08/19 06:51:18;;;;;;;2.85;2.08;;;25.10;97.90;;;;;;4052577;29;20458;-60
2023/08/19 06:53:22;;;;;;;5.80;2.20;;;25.10;98.00;;;;;;4052535;29;20095;-61
2023/08/19 06:55:25;;;;;;;6.13;1.98;;;25.10;98.20;;;;;;4052123;29;20052;-61
2023/08/19 06:57:29;;;;;;;6.68;2.20;;;25.10;98.10;;;;;;4052361;29;20080;-58
2023/08/19 06:59:35;;;;;;;3.60;2.30;;;25.10;98.00;;;;;;4052775;29;20049;-58
2023/08/19 07:01:40;;;;;;;6.95;2.20;;;25.10;97.90;;;;;;4051298;29;20110;-59
2023/08/19 07:03:42;;;;;;;;;;;25.00;98.00;;;;;;4053143;29;20041;-59
2023/08/19 07:05:46;;;;;;;4.32;2.10;;;25.00;97.90;;;;;;4051699;29;19927;-58
2023/08/19 07:07:50;;;;;;;5.55;2.35;;;24.90;98.20;;;;;;4052170;29;20044;-58
2023/08/19 07:09:54;;;;;;;3.55;2.05;;;24.90;98.40;;;;;;4052367;29;20104;-58
2023/08/19 07:11:57;;;;;;;6.85;2.95;;;24.90;98.30;;;;;;4052181;29;20048;-55
2023/08/19 07:14:00;;;;;;;3.65;1.90;;;24.90;98.40;;;;;;4050987;29;20363;-56
2023/08/19 07:16:05;;;;;;;7.53;2.85;;;24.90;98.30;;;;;;4036532;29;20136;-55
2023/08/19 07:18:14;;;;;;;7.47;2.85;;;24.90;98.00;;;;;;4051915;29;20080;-56
2023/08/19 07:20:22;;;;;;;7.18;2.20;;;24.90;98.00;;;;;;4052341;29;20048;-57
2023/08/19 07:22:26;;;;;;;7.18;2.47;;;24.90;98.20;;;;;;4052817;29;20057;-56
2023/08/19 07:24:30;;;;;;;3.25;2.33;;;25.00;98.20;;;;;;4053094;29;20072;-58
2023/08/19 07:26:36;;;;;;;3.65;2.20;;;25.10;98.20;;;;;;4052615;29;20044;-56
2023/08/19 07:28:39;;;;;;;4.93;2.40;;;25.20;98.00;;;;;;4052591;29;20083;-58
2023/08/19 07:30:41;;;;;;;9.93;2.70;;;25.30;98.10;;;;;;4052619;29;20057;-58
2023/08/19 07:32:45;;;;;;;5.65;2.10;;;25.30;97.80;;;;;;4052325;29;20045;-57
2023/08/19 07:34:47;;;;;;;6.78;2.50;;;25.40;97.80;;;;;;4051489;29;20040;-58
2023/08/19 07:36:49;;;;;;;8.55;2.40;;;25.40;98.00;;;;;;4052078;29;20118;-58
2023/08/19 07:38:51;;;;;;;5.18;2.10;;;25.50;97.70;;;;;;4066303;29;20139;-58
2023/08/19 07:40:53;;;;;;;8.65;2.60;;;25.60;97.60;;;;;;4036887;29;20136;-58
2023/08/19 07:42:57;;;;;;;13.55;2.75;;;25.70;97.60;;;;;;4042886;29;20051;-58
2023/08/19 07:44:59;;;;;;;4.45;2.13;;;25.80;97.50;;;;;;4051518;29;20107;-57
2023/08/19 07:47:01;;;;;;;6.45;2.40;;;25.80;97.50;;;;;;4052231;29;20049;-57
2023/08/19 07:49:03;;;;;;;4.03;2.03;;;25.70;97.40;;;;;;4054222;29;20052;-57
2023/08/19 07:51:05;;;;;;;3.88;2.00;;;25.60;97.40;;;;;;4055265;29;20140;-59
2023/08/19 07:53:08;;;;;;;3.97;2.15;;;25.50;97.50;;;;;;4054758;29;20041;-59
2023/08/19 07:55:10;;;;;;;6.82;2.45;;;25.50;97.50;;;;;;4053152;29;20048;-59
2023/08/19 07:57:12;;;;;;;7.30;2.67;;;25.50;97.80;;;;;;4054836;29;20516;-60
2023/08/19 07:59:15;;;;;;;4.18;2.28;;;25.40;97.70;;;;;;4054812;29;20080;-59
2023/08/19 08:01:17;;;;;;;5.38;2.40;;;25.30;97.80;;;;;;4054987;29;20131;-59
2023/08/19 08:03:20;;;;;;;4.85;2.72;;;25.30;97.90;;;;;;4055035;29;20048;-59
2023/08/19 08:05:22;;;;;;;4.93;2.42;;;25.20;97.90;;;;;;4054368;29;20044;-58
2023/08/19 08:07:24;;;;;;;4.60;2.33;;;25.10;97.90;;;;;;4054976;29;20499;-59
2023/08/19 08:09:26;;;;;;;6.43;2.70;;;25.00;97.90;;;;;;4055118;29;20144;-60
2023/08/19 08:11:28;;;;;;;8.82;2.60;;;25.00;98.00;;;;;;4054657;29;20055;-59
2023/08/19 08:13:31;;;;;;;5.18;2.35;;;25.00;98.10;;;;;;4054645;29;20044;-59
2023/08/19 08:15:35;;;;;;;4.78;2.58;;;25.00;98.20;;;;;;4062228;29;20096;-59
2023/08/19 08:17:38;;;;;;;6.38;2.05;;;24.90;98.30;;;;;;4055100;29;20097;-59
2023/08/19 08:19:40;;;;;;;4.68;2.05;;;24.80;98.70;;;;;;4054808;29;20056;-59
2023/08/19 08:21:42;;;;;;;7.22;2.25;;;24.70;98.60;;;;;;4054976;29;20048;-59
2023/08/19 08:23:44;;;;;;;4.55;2.42;;;24.60;98.90;;;;;;4054910;29;20140;-62
2023/08/19 08:25:46;;;;;;;5.65;2.47;;;24.50;99.30;;;;;;4053945;29;20053;-61
2023/08/19 08:27:48;;;;;;;4.38;2.10;;;24.50;99.30;;;;;;4054739;29;20056;-61
2023/08/19 08:29:50;;;;;;;4.50;2.53;;;24.40;99.60;;;;;;4054847;29;20073;-62
2023/08/19 08:31:53;;;;;;;4.70;2.33;;;24.40;99.90;;;;;;4054671;29;20047;-58
2023/08/19 08:33:56;;;;;;;8.38;3.30;;;24.50;99.90;;;;;;4054333;29;20048;-58
2023/08/19 08:35:59;;;;;;;4.68;2.25;;;24.40;99.80;;;;;;4054122;29;20068;-58
2023/08/19 08:38:01;;;;;;;5.93;2.13;;;24.50;99.90;;;;;;4054597;29;20069;-59
2023/08/19 08:40:03;;;;;;;3.28;2.28;;;24.40;99.90;;;;;;4054001;29;20119;-58
2023/08/19 08:42:08;;;;;;;6.50;2.90;;;24.40;99.90;;;;;;4054549;29;20045;-59
2023/08/19 08:44:11;;;;;;;7.82;2.65;;;24.40;99.90;;;;;;4054577;29;20056;-58
2023/08/19 08:46:14;;;;;;;7.80;2.40;;;24.40;99.90;;;;;;4053994;29;20048;-58
2023/08/19 08:48:18;;;;;;;4.55;2.40;;;24.40;99.90;;;;;;4054427;29;20050;-58
2023/08/19 08:50:21;;;;;;;4.22;2.63;;;24.40;99.70;;;;;;4054489;29;20124;-58
2023/08/19 08:52:24;;;;;;;5.63;2.47;;;24.30;99.80;;;;;;4054373;29;20099;-58
2023/08/19 08:54:28;;;;;;;8.05;2.38;;;24.40;99.80;;;;;;4054129;29;20445;-60
2023/08/19 08:56:30;;;;;;;6.15;2.70;;;24.30;99.70;;;;;;4053873;29;20076;-60
2023/08/19 08:58:32;;;;;;;3.25;2.00;;;24.30;99.30;;;;;;4054573;29;20053;-60
2023/08/19 09:00:37;;;;;;;7.32;2.60;;;24.40;99.20;;;;;;4052899;29;20048;-60
2023/08/19 09:02:40;;;;;;;7.70;2.28;;;24.40;99.20;;;;;;4054179;29;20089;-60
2023/08/19 09:04:45;;;;;;;6.38;2.50;;;24.40;99.40;;;;;;4054091;29;20048;-60
2023/08/19 09:06:50;;;;;;;;;;;24.40;99.30;;;;;;4054706;29;20059;-58
2023/08/19 09:08:58;;;;;;;4.28;2.00;;;24.40;99.60;;;;;;4054264;29;19923;-60
2023/08/19 09:11:01;;;;;;;5.38;2.08;;;24.40;99.90;;;;;;4054716;29;20073;-58
2023/08/19 09:13:05;;;;;;;4.50;2.42;;;24.40;99.50;;;;;;4054817;29;20053;-60
2023/08/19 09:15:09;;;;;;;7.95;3.08;;;24.30;99.50;;;;;;4061861;29;20127;-59
2023/08/19 09:17:14;;;;;;;7.22;2.50;;;24.30;99.90;;;;;;4053562;29;20052;-60
2023/08/19 09:19:17;;;;;;;6.60;2.53;;;24.30;99.90;;;;;;4053051;29;20205;-60
2023/08/19 09:21:20;;;;;;;4.85;2.33;;;24.20;99.90;;;;;;4053739;29;20430;-60
2023/08/19 09:23:22;;;;;;;5.25;2.60;;;24.30;99.90;;;;;;4053533;29;20135;-59
2023/08/19 09:25:29;;;;;;;6.13;2.70;;;24.20;99.90;;;;;;4053320;29;20080;-59
2023/08/19 09:27:32;;;;;;;7.10;2.40;;;24.20;99.90;;;;;;4053529;29;20056;-60
2023/08/19 09:29:34;;;;;;;7.75;2.42;;;24.20;99.90;;;;;;4053957;29;20411;-59
2023/08/19 09:31:40;;;;;;;4.13;2.58;;;24.20;99.90;;;;;;4053871;29;20053;-60
2023/08/19 09:33:43;;;;;;;4.35;2.47;;;24.10;99.90;;;;;;4054221;29;20131;-57
2023/08/19 09:35:54;;;;;;;10.23;3.10;;;24.10;99.90;;;;;;4053413;29;20080;-57
2023/08/19 09:38:02;;;;;;;8.95;3.55;;;24.00;99.90;;;;;;4053345;29;20052;-56
2023/08/19 09:40:11;;;;;;;7.68;2.70;;;24.00;99.90;;;;;;4053864;29;20144;-57
2023/08/19 09:42:13;;;;;;;8.00;3.00;;;23.90;99.90;;;;;;4053430;29;20506;-57
2023/08/19 09:44:15;;;;;;;6.82;2.72;;;23.70;99.90;;;;;;4053793;29;20055;-57
2023/08/19 09:46:18;;;;;;;7.82;3.13;;;23.70;99.90;;;;;;4052915;29;20443;-57
2023/08/19 09:48:21;;;;;;;8.27;3.10;;;23.70;99.90;;;;;;4053587;29;20072;-57
2023/08/19 09:50:24;;;;;;;6.70;2.50;;;23.70;99.90;;;;;;4053987;29;20103;-57
2023/08/19 09:52:26;;;;;;;4.20;2.63;;;23.60;99.90;;;;;;4068060;29;20107;-56
2023/08/19 09:54:31;;;;;;;4.63;2.63;;;23.60;99.90;;;;;;4047100;29;20479;-57
2023/08/19 09:56:33;;;;;;;4.65;2.53;;;23.60;99.90;;;;;;4052973;29;20076;-58
2023/08/19 09:58:35;;;;;;;7.45;3.38;;;23.60;99.90;;;;;;4053588;29;20048;-57
2023/08/19 10:00:38;;;;;;;5.70;2.80;;;23.50;99.90;;;;;;4053543;29;20088;-59
2023/08/19 10:02:41;;;;;;;5.45;2.60;;;23.40;99.90;;;;;;4053297;29;20045;-57
2023/08/19 10:04:43;;;;;;;6.50;3.35;;;23.50;99.90;;;;;;4053538;29;20059;-61
2023/08/19 10:06:48;;;;;;;7.95;3.35;;;23.40;99.90;;;;;;4052494;29;20083;-56
2023/08/19 10:08:59;;;;;;;9.18;3.72;;;23.40;99.90;;;;;;4053112;29;20052;-57
2023/08/19 10:11:04;;;;;;;9.80;3.65;;;23.30;99.90;;;;;;4053005;29;20420;-57
2023/08/19 10:13:07;;;;;;;;;;;23.40;99.90;;;;;;4053498;29;20049;-58
2023/08/19 10:15:13;;;;;;;8.77;3.75;;;23.30;99.90;;;;;;4052689;29;19979;-57
2023/08/19 10:17:16;;;;;;;6.88;3.05;;;23.20;99.90;;;;;;4054126;29;20076;-58
2023/08/19 10:19:21;;;;;;;8.20;3.75;;;23.20;99.90;;;;;;4054564;29;20049;-59
2023/08/19 10:21:25;;;;;;;7.68;3.13;;;23.10;99.90;;;;;;4053289;29;20483;-57
2023/08/19 10:23:28;;;;;;;9.00;4.38;;;23.10;99.90;;;;;;4052902;29;20045;-57
2023/08/19 10:25:31;;;;;;;4.25;3.10;;;23.10;99.90;;;;;;4051362;29;20103;-57
2023/08/19 10:27:42;;;;;;;6.85;3.53;;;23.10;99.90;;;;;;4053020;29;20474;-56
2023/08/19 10:29:50;;;;;;;5.25;3.17;;;23.20;99.90;;;;;;4052835;29;20048;-56
2023/08/19 10:31:52;;;;;;;6.18;3.67;;;23.40;99.90;;;;;;4053137;29;20055;-57
2023/08/19 10:33:55;;;;;;;7.28;4.47;;;23.50;99.90;;;;;;4052689;29;20055;-57
2023/08/19 10:36:00;;;;;;;6.53;3.25;;;23.60;99.90;;;;;;4051836;29;20053;-56
2023/08/19 10:38:12;;;;;;;6.18;3.63;;;23.90;99.90;;;;;;4052787;29;20053;-57
2023/08/19 10:40:22;;;;;;;9.02;3.40;;;24.10;99.90;;;;;;4052548;29;20052;-58